createdAt,value
2019-04-16T00:00:35.460Z,80.76
2019-04-16T00:03:04.231Z,81.04
2019-04-16T00:05:50.766Z,81.42
2019-04-16T00:08:29.725Z,81.42
2019-04-16T00:11:00.375Z,81.55
2019-04-16T00:13:30.642Z,81.73
2019-04-16T00:15:59.844Z,81.86
2019-04-16T00:18:28.415Z,81.80
2019-04-16T00:20:58.606Z,81.42
2019-04-16T00:23:28.849Z,82.16
2019-04-16T00:25:57.468Z,82.24
2019-04-16T00:28:30.531Z,82.58
2019-04-16T00:30:56.493Z,82.93
2019-04-16T00:33:25.366Z,83.16
2019-04-16T00:35:53.939Z,83.13
2019-04-16T00:38:23.273Z,83.06
2019-04-16T00:40:51.922Z,83.49
2019-04-16T00:43:20.532Z,83.45
2019-04-16T00:45:50.414Z,83.09
2019-04-16T00:48:18.966Z,83.18
2019-04-16T00:50:47.597Z,83.28
2019-04-16T00:53:16.212Z,83.69
2019-04-16T00:55:45.016Z,83.57
2019-04-16T00:58:14.310Z,83.99
2019-04-16T01:00:42.976Z,83.74
2019-04-16T01:03:11.598Z,83.88
2019-04-16T01:05:40.183Z,84.12
2019-04-16T01:08:08.737Z,84.69
2019-04-16T01:10:37.332Z,84.57
2019-04-16T01:13:05.889Z,84.51
2019-04-16T01:15:34.657Z,84.34
2019-04-16T01:18:04.542Z,84.26
2019-04-16T01:20:33.697Z,84.30
2019-04-16T01:23:02.329Z,84.49
2019-04-16T01:25:31.328Z,84.57
2019-04-16T01:28:13.682Z,84.57
2019-04-16T01:30:58.707Z,84.75
2019-04-16T01:33:32.054Z,85.10
2019-04-16T01:36:02.273Z,85.18
2019-04-16T01:38:38.648Z,85.57
2019-04-16T01:41:09.179Z,85.58
2019-04-16T01:43:38.118Z,85.87
2019-04-16T01:46:06.691Z,86.05
2019-04-16T01:48:38.607Z,85.67
2019-04-16T01:51:06.001Z,85.73
2019-04-16T01:53:35.131Z,86.01
2019-04-16T01:56:03.711Z,85.73
2019-04-16T01:58:33.822Z,86.08
2019-04-16T02:01:02.764Z,85.96
2019-04-16T02:03:31.337Z,85.56
2019-04-16T02:05:59.910Z,85.66
2019-04-16T02:08:31.114Z,85.72
2019-04-16T02:10:58.751Z,85.06
2019-04-16T02:13:27.414Z,85.27
2019-04-16T02:15:55.949Z,84.91
2019-04-16T02:18:29.459Z,85.12
2019-04-16T02:20:54.878Z,84.75
2019-04-16T02:23:23.535Z,85.64
2019-04-16T02:25:53.952Z,85.78
2019-04-16T02:28:22.560Z,86.54
2019-04-16T02:30:51.479Z,86.74
2019-04-16T02:33:21.427Z,86.53
2019-04-16T02:35:53.012Z,87.26
2019-04-16T02:38:24.800Z,87.50
2019-04-16T02:40:53.552Z,86.60
2019-04-16T02:43:23.719Z,86.30
2019-04-16T02:45:56.721Z,86.07
2019-04-16T02:48:23.195Z,86.48
2019-04-16T02:50:56.554Z,87.07
2019-04-16T02:53:43.303Z,87.08
2019-04-16T02:56:18.746Z,87.16
2019-04-16T02:58:51.891Z,87.46
2019-04-16T03:01:22.240Z,87.49
2019-04-16T03:04:01.741Z,87.83
2019-04-16T03:06:31.979Z,88.29
2019-04-16T03:09:00.654Z,88.13
2019-04-16T03:11:29.439Z,87.80
2019-04-16T03:13:59.335Z,88.12
2019-04-16T03:16:29.734Z,88.09
2019-04-16T03:19:00.004Z,88.13
2019-04-16T03:21:28.614Z,87.89
2019-04-16T03:23:57.645Z,87.86
2019-04-16T03:26:26.194Z,88.05
2019-04-16T03:28:55.653Z,87.92
2019-04-16T03:31:25.239Z,88.18
2019-04-16T03:33:53.869Z,88.22
2019-04-16T03:36:22.573Z,88.33
2019-04-16T03:38:51.184Z,88.71
2019-04-16T03:41:24.876Z,88.80
2019-04-16T03:43:53.193Z,88.89
2019-04-16T03:46:22.075Z,88.27
2019-04-16T03:48:52.620Z,88.18
2019-04-16T03:51:20.940Z,88.42
2019-04-16T03:53:50.374Z,88.59
2019-04-16T03:56:20.842Z,88.34
2019-04-16T03:58:50.078Z,88.39
2019-04-16T04:01:18.689Z,88.81
2019-04-16T04:03:47.700Z,88.89
2019-04-16T04:06:16.328Z,88.85
2019-04-16T04:08:48.031Z,88.84
2019-04-16T04:11:15.603Z,88.56
2019-04-16T04:13:44.320Z,88.44
2019-04-16T04:16:14.226Z,88.75
2019-04-16T04:18:43.861Z,88.88
2019-04-16T04:21:12.511Z,89.04
2019-04-16T04:23:41.126Z,89.16
2019-04-16T04:26:10.259Z,89.11
2019-04-16T04:28:39.364Z,88.64
2019-04-16T04:31:07.974Z,87.40
2019-04-16T04:33:40.893Z,87.72
2019-04-16T04:36:08.741Z,87.95
2019-04-16T04:38:38.474Z,88.15
2019-04-16T04:41:08.056Z,88.82
2019-04-16T04:43:36.772Z,88.99
2019-04-16T04:46:05.770Z,88.95
2019-04-16T04:48:34.333Z,88.54
2019-04-16T04:51:06.977Z,88.14
2019-04-16T04:53:33.660Z,88.66
2019-04-16T04:56:02.240Z,87.00
2019-04-16T04:58:33.837Z,87.32
2019-04-16T05:01:01.234Z,87.40
2019-04-16T05:03:44.400Z,86.49
2019-04-16T05:06:15.166Z,86.49
2019-04-16T05:08:43.738Z,87.00
2019-04-16T05:11:15.250Z,86.96
2019-04-16T05:13:42.704Z,86.44
2019-04-16T05:16:11.530Z,86.60
2019-04-16T05:18:41.923Z,86.46
2019-04-16T05:21:10.380Z,86.44
2019-04-16T05:23:38.984Z,85.79
2019-04-16T05:26:09.822Z,85.29
2019-04-16T05:28:37.871Z,84.67
2019-04-16T05:31:06.449Z,84.68
2019-04-16T05:33:37.495Z,83.97
2019-04-16T05:36:05.411Z,82.89
2019-04-16T05:38:34.022Z,82.18
2019-04-16T05:41:13.019Z,82.55
2019-04-16T05:43:33.709Z,81.95
2019-04-16T05:46:02.296Z,82.64
2019-04-16T05:48:31.131Z,81.50
2019-04-16T05:51:00.627Z,80.01
2019-04-16T05:53:29.378Z,79.29
2019-04-16T05:56:11.827Z,79.37
2019-04-16T05:58:40.424Z,78.02
2019-04-16T06:01:14.157Z,77.70
2019-04-16T06:03:42.978Z,77.58
2019-04-16T06:06:24.407Z,78.13
2019-04-16T06:08:56.803Z,76.79
2019-04-16T06:11:29.121Z,75.33
2019-04-16T06:13:57.302Z,76.46
2019-04-16T06:16:27.500Z,74.94
2019-04-16T06:19:03.437Z,75.66
2019-04-16T06:21:36.337Z,74.54
2019-04-16T06:24:24.576Z,73.29
2019-04-16T06:26:54.793Z,73.52
2019-04-16T06:29:37.398Z,73.79
2019-04-16T06:32:22.711Z,72.37
2019-04-16T06:34:59.943Z,72.74
2019-04-16T06:37:35.833Z,71.61
2019-04-16T06:40:10.668Z,70.94
2019-04-16T06:42:40.899Z,70.38
2019-04-16T06:45:17.695Z,70.29
2019-04-16T06:47:47.899Z,68.65
2019-04-16T06:53:08.397Z,68.15
2019-04-16T06:55:38.658Z,68.15
2019-04-16T06:58:21.515Z,67.43
2019-04-16T07:01:00.479Z,66.61
2019-04-16T07:03:32.735Z,66.61
2019-04-16T07:06:04.019Z,66.13
2019-04-16T07:08:51.062Z,66.08
2019-04-16T07:11:21.279Z,66.08
2019-04-16T07:13:52.858Z,64.94
2019-04-16T07:16:28.129Z,63.41
2019-04-16T07:18:53.214Z,63.41
2019-04-16T07:21:21.818Z,61.61
2019-04-16T07:23:57.002Z,61.61
2019-04-16T07:26:25.253Z,62.35
2019-04-16T07:28:59.743Z,61.58
2019-04-16T07:31:36.587Z,61.04
2019-04-16T07:34:12.935Z,60.77
2019-04-16T07:36:52.093Z,60.58
2019-04-16T07:39:38.743Z,59.37
2019-04-16T07:42:11.809Z,59.33
2019-04-16T07:44:56.853Z,60.88
2019-04-16T07:47:35.701Z,58.56
2019-04-16T07:50:13.752Z,56.13
2019-04-16T07:52:46.940Z,56.84
2019-04-16T07:55:28.791Z,56.25
2019-04-16T07:57:57.388Z,53.32
2019-04-16T08:00:25.995Z,54.22
2019-04-16T08:02:54.789Z,54.63
2019-04-16T08:05:23.366Z,53.04
2019-04-16T08:07:53.837Z,54.04
2019-04-16T08:10:22.624Z,53.24
2019-04-16T08:12:57.209Z,52.81
2019-04-16T08:15:24.771Z,52.22
2019-04-16T08:17:53.384Z,50.74
2019-04-16T08:20:23.748Z,50.50
2019-04-16T08:22:56.866Z,48.03
2019-04-16T08:25:27.092Z,48.30
2019-04-16T08:27:55.968Z,47.22
2019-04-16T08:30:24.740Z,46.14
2019-04-16T08:32:53.353Z,46.61
2019-04-16T08:35:23.469Z,47.50
2019-04-16T08:37:53.586Z,45.27
2019-04-16T08:40:25.162Z,44.91
2019-04-16T08:42:57.031Z,45.21
2019-04-16T08:45:24.028Z,45.98
2019-04-16T08:47:52.582Z,43.52
2019-04-16T08:50:25.854Z,44.41
2019-04-16T08:52:51.780Z,43.45
2019-04-16T08:55:23.622Z,43.02
2019-04-16T08:57:55.277Z,41.66
2019-04-16T09:00:24.126Z,43.91
2019-04-16T09:02:57.813Z,41.49
2019-04-16T09:05:23.396Z,41.67
2019-04-16T09:07:53.959Z,41.51
2019-04-16T09:10:24.102Z,39.45
2019-04-16T09:13:02.953Z,39.28
2019-04-16T09:15:31.979Z,38.75
2019-04-16T09:18:11.564Z,38.14
2019-04-16T09:20:41.210Z,39.53
2019-04-16T09:23:09.771Z,41.26
2019-04-16T09:25:45.549Z,39.10
2019-04-16T09:28:31.864Z,38.88
2019-04-16T09:31:21.960Z,38.30
2019-04-16T09:34:05.587Z,37.91
2019-04-16T09:36:50.104Z,37.87
2019-04-16T09:39:20.496Z,37.40
2019-04-16T09:41:52.125Z,36.76
2019-04-16T09:44:20.677Z,35.43
2019-04-16T09:46:51.430Z,36.74
2019-04-16T09:49:19.757Z,35.61
2019-04-16T09:51:50.420Z,33.83
2019-04-16T09:54:18.699Z,37.06
2019-04-16T09:56:47.293Z,34.79
2019-04-16T09:59:17.546Z,35.41
2019-04-16T10:01:50.778Z,33.83
2019-04-16T10:04:20.528Z,33.31
2019-04-16T10:06:51.273Z,35.58
2019-04-16T10:09:23.231Z,34.57
2019-04-16T10:11:51.924Z,34.20
2019-04-16T10:14:20.688Z,34.29
2019-04-16T10:16:49.322Z,33.10
2019-04-16T10:19:21.043Z,32.71
2019-04-16T10:21:52.933Z,30.83
2019-04-16T10:24:25.861Z,32.06
2019-04-16T10:26:56.947Z,32.77
2019-04-16T10:29:26.418Z,33.38
2019-04-16T10:31:55.776Z,34.70
2019-04-16T10:34:24.304Z,33.23
2019-04-16T10:36:52.990Z,32.57
2019-04-16T10:39:28.473Z,31.54
2019-04-16T10:41:58.723Z,35.31
2019-04-16T10:44:32.104Z,33.75
2019-04-16T10:47:02.395Z,31.59
2019-04-16T10:49:41.431Z,31.70
2019-04-16T10:52:27.676Z,30.78
2019-04-16T10:55:03.972Z,32.26
2019-04-16T10:57:34.199Z,32.91
2019-04-16T11:00:07.016Z,32.97
2019-04-16T11:02:37.274Z,32.25
2019-04-16T11:05:11.756Z,34.75
2019-04-16T11:07:41.412Z,32.86
2019-04-16T11:10:11.908Z,31.21
2019-04-16T11:12:41.028Z,32.87
2019-04-16T11:15:11.326Z,31.11
2019-04-16T11:17:39.948Z,31.10
2019-04-16T11:20:08.625Z,30.68
2019-04-16T11:22:37.259Z,31.42
2019-04-16T11:25:06.668Z,33.26
2019-04-16T11:27:35.472Z,32.22
2019-04-16T11:30:07.879Z,31.69
2019-04-16T11:32:39.235Z,30.80
2019-04-16T11:35:07.017Z,32.64
2019-04-16T11:37:36.369Z,32.28
2019-04-16T11:40:06.610Z,32.38
2019-04-16T11:42:35.205Z,30.99
2019-04-16T11:45:06.057Z,31.26
2019-04-16T11:47:34.936Z,31.77
2019-04-16T11:50:04.846Z,29.73
2019-04-16T11:52:33.509Z,30.29
2019-04-16T11:55:02.048Z,31.48
2019-04-16T11:57:33.218Z,30.08
2019-04-16T12:00:07.609Z,29.75
2019-04-16T12:02:38.687Z,31.71
2019-04-16T12:05:08.364Z,30.01
2019-04-16T12:07:41.365Z,30.34
2019-04-16T12:10:29.283Z,30.47
2019-04-16T12:13:11.403Z,29.89
2019-04-16T12:15:57.434Z,29.80
2019-04-16T12:18:27.734Z,29.23
2019-04-16T12:20:58.205Z,29.75
2019-04-16T12:23:31.506Z,28.80
2019-04-16T12:26:18.135Z,29.70
2019-04-16T12:29:03.243Z,30.31
2019-04-16T12:31:42.262Z,31.50
2019-04-16T12:34:15.132Z,31.80
2019-04-16T12:36:48.033Z,30.20
2019-04-16T12:39:36.037Z,29.37
2019-04-16T12:42:06.717Z,30.14
2019-04-16T12:44:45.658Z,29.71
2019-04-16T12:47:11.585Z,29.83
2019-04-16T12:49:41.791Z,29.73
2019-04-16T12:52:28.316Z,31.27
2019-04-16T12:55:07.343Z,31.07
2019-04-16T12:57:49.924Z,30.13
2019-04-16T13:00:36.462Z,31.85
2019-04-16T13:03:06.932Z,30.66
2019-04-16T13:05:53.981Z,27.91
2019-04-16T13:08:30.469Z,27.89
2019-04-16T13:11:20.738Z,28.98
2019-04-16T13:14:06.095Z,29.23
2019-04-16T13:16:52.431Z,29.38
2019-04-16T13:19:31.350Z,29.43
2019-04-16T13:22:00.941Z,29.68
2019-04-16T13:24:33.695Z,27.50
2019-04-16T13:27:12.804Z,28.27
2019-04-16T13:29:41.523Z,29.33
2019-04-16T13:32:10.097Z,28.36
2019-04-16T13:34:38.648Z,28.57
2019-04-16T13:37:07.778Z,29.52
2019-04-16T13:39:46.827Z,28.69
2019-04-16T13:42:15.585Z,29.01
2019-04-16T13:45:15.151Z,28.59
2019-04-16T13:47:32.529Z,28.74
2019-04-16T13:50:15.072Z,28.08
2019-04-16T13:52:43.981Z,28.11
2019-04-16T13:55:29.300Z,28.58
2019-04-16T13:58:05.371Z,29.07
2019-04-16T14:00:36.356Z,28.26
2019-04-16T14:03:16.042Z,27.46
2019-04-16T14:05:44.603Z,26.79
2019-04-16T14:08:13.277Z,27.04
2019-04-16T14:10:43.326Z,27.99
2019-04-16T14:13:13.567Z,27.57
2019-04-16T14:15:44.763Z,26.88
2019-04-16T14:18:12.700Z,26.58
2019-04-16T14:20:41.340Z,28.18
2019-04-16T14:23:10.277Z,28.25
2019-04-16T14:25:38.831Z,27.84
2019-04-16T14:28:07.476Z,29.54
2019-04-16T14:30:39.540Z,28.62
2019-04-16T14:33:47.924Z,26.46
2019-04-16T14:36:16.549Z,28.01
2019-04-16T14:38:51.119Z,27.17
2019-04-16T14:41:21.709Z,26.95
2019-04-16T14:43:52.049Z,27.70
2019-04-16T14:46:20.777Z,28.14
2019-04-16T14:48:49.381Z,27.64
2019-04-16T14:51:17.944Z,27.50
2019-04-16T14:53:51.143Z,26.73
2019-04-16T14:56:22.934Z,28.14
2019-04-16T14:58:57.379Z,27.86
2019-04-16T15:01:33.266Z,29.01
2019-04-16T15:04:20.364Z,28.29
2019-04-16T15:07:08.917Z,27.98
2019-04-16T15:09:44.974Z,29.50
2019-04-16T15:12:15.267Z,28.15
2019-04-16T15:14:45.507Z,29.05
2019-04-16T15:17:15.761Z,27.29
2019-04-16T15:20:02.117Z,27.99
2019-04-16T15:22:37.980Z,26.77
2019-04-16T15:25:09.742Z,26.34
2019-04-16T15:27:56.237Z,26.20
2019-04-16T15:30:45.146Z,25.35
2019-04-16T15:33:15.498Z,25.67
2019-04-16T15:35:46.708Z,26.15
2019-04-16T15:38:17.747Z,26.36
2019-04-16T15:40:47.942Z,25.95
2019-04-16T15:43:34.750Z,25.11
2019-04-16T15:46:24.843Z,26.57
2019-04-16T15:48:55.328Z,27.51
2019-04-16T15:51:44.078Z,27.73
2019-04-16T15:54:24.548Z,28.22
2019-04-16T15:57:11.100Z,27.74
2019-04-16T15:59:57.737Z,29.29
2019-04-16T16:02:40.080Z,28.44
2019-04-16T16:05:13.307Z,30.11
2019-04-16T16:07:43.564Z,29.12
2019-04-16T16:10:14.247Z,29.00
2019-04-16T16:12:42.855Z,30.56
2019-04-16T16:15:11.852Z,31.50
2019-04-16T16:17:40.408Z,32.50
2019-04-16T16:20:10.239Z,31.87
2019-04-16T16:22:39.524Z,32.64
2019-04-16T16:25:08.936Z,32.23
2019-04-16T16:27:41.715Z,31.12
2019-04-16T16:30:08.015Z,32.22
2019-04-16T16:32:36.581Z,32.37
2019-04-16T16:35:06.629Z,33.14
2019-04-16T16:37:36.870Z,35.06
2019-04-16T16:40:06.478Z,35.14
2019-04-16T16:42:35.032Z,34.42
2019-04-16T16:45:04.014Z,33.12
2019-04-16T16:47:39.664Z,33.81
2019-04-16T16:50:10.442Z,36.09
2019-04-16T16:52:41.362Z,35.47
2019-04-16T16:55:18.648Z,33.61
2019-04-16T16:57:51.882Z,35.88
2019-04-16T17:00:37.738Z,35.31
2019-04-16T17:03:16.945Z,36.16
2019-04-16T17:05:45.893Z,36.67
2019-04-16T17:08:14.444Z,38.64
2019-04-16T17:10:43.032Z,38.16
2019-04-16T17:13:14.654Z,35.64
2019-04-16T17:15:41.902Z,36.77
2019-04-16T17:18:10.459Z,38.54
2019-04-16T17:20:41.350Z,37.95
2019-04-16T17:23:09.704Z,37.45
2019-04-16T17:25:38.266Z,37.52
2019-04-16T17:28:07.006Z,37.55
2019-04-16T17:30:35.605Z,39.37
2019-04-16T17:33:04.427Z,38.29
2019-04-16T17:35:33.049Z,39.54
2019-04-16T17:38:03.601Z,38.86
2019-04-16T17:40:46.108Z,38.92
2019-04-16T17:43:22.714Z,37.81
2019-04-16T17:45:54.529Z,38.84
2019-04-16T17:48:34.423Z,40.32
2019-04-16T17:51:16.966Z,39.50
2019-04-16T17:53:47.734Z,39.94
2019-04-16T17:56:18.099Z,40.02
2019-04-16T17:58:54.391Z,41.32
2019-04-16T18:01:43.377Z,40.31
2019-04-16T18:04:12.804Z,40.30
2019-04-16T18:06:46.330Z,40.26
2019-04-16T18:09:26.012Z,41.55
2019-04-16T18:12:16.930Z,41.96
2019-04-16T18:15:09.134Z,41.18
2019-04-16T18:17:46.805Z,41.58
2019-04-16T18:20:21.720Z,41.55
2019-04-16T18:23:09.989Z,41.42
2019-04-16T18:25:57.708Z,41.31
2019-04-16T18:28:37.027Z,41.84
2019-04-16T18:31:07.212Z,41.99
2019-04-16T18:33:43.422Z,43.12
2019-04-16T18:36:14.153Z,42.94
2019-04-16T18:38:45.645Z,42.26
2019-04-16T18:41:31.562Z,43.66
2019-04-16T18:44:13.698Z,42.79
2019-04-16T18:46:46.723Z,43.05
2019-04-16T18:49:17.652Z,44.79
2019-04-16T18:51:47.118Z,43.33
2019-04-16T18:54:15.888Z,43.91
2019-04-16T18:56:44.649Z,44.34
2019-04-16T18:59:13.466Z,43.73
2019-04-16T19:04:33.880Z,44.33
2019-04-16T19:07:02.672Z,44.52
2019-04-16T19:09:31.302Z,44.81
2019-04-16T19:12:00.366Z,45.51
2019-04-16T19:14:29.059Z,45.29
2019-04-16T19:16:57.675Z,44.85
2019-04-16T19:19:26.278Z,46.36
2019-04-16T19:21:54.928Z,45.69
2019-04-16T19:24:25.111Z,45.32
2019-04-16T19:26:53.699Z,47.03
2019-04-16T19:29:25.188Z,46.01
2019-04-16T19:31:56.755Z,46.95
2019-04-16T19:34:25.388Z,46.17
2019-04-16T19:36:55.902Z,46.02
2019-04-16T19:39:24.358Z,46.96
2019-04-16T19:41:57.484Z,46.60
2019-04-16T19:44:23.520Z,47.43
2019-04-16T19:46:54.328Z,46.96
2019-04-16T19:49:23.108Z,48.14
2019-04-16T19:51:51.834Z,46.52
2019-04-16T19:54:22.275Z,47.13
2019-04-16T19:56:53.860Z,49.06
2019-04-16T19:59:22.472Z,47.20
2019-04-16T20:01:56.020Z,47.50
2019-04-16T20:04:25.024Z,47.93
2019-04-16T20:06:56.952Z,48.36
2019-04-16T20:09:24.399Z,47.78
2019-04-16T20:11:55.557Z,48.28
2019-04-16T20:14:23.356Z,47.90
2019-04-16T20:16:53.482Z,48.23
2019-04-16T20:19:23.581Z,48.40
2019-04-16T20:21:55.277Z,48.29
2019-04-16T20:24:23.896Z,48.16
2019-04-16T20:26:52.775Z,49.80
2019-04-16T20:29:24.445Z,48.71
2019-04-16T20:31:53.341Z,49.03
2019-04-16T20:34:21.960Z,49.30
2019-04-16T20:36:52.137Z,49.69
2019-04-16T20:39:22.787Z,49.63
2019-04-16T20:41:58.439Z,49.92
2019-04-16T20:44:23.397Z,49.78
2019-04-16T20:46:53.822Z,50.54
2019-04-16T20:49:22.576Z,51.18
2019-04-16T20:51:51.183Z,50.57
2019-04-16T20:54:19.994Z,51.65
2019-04-16T20:56:53.123Z,50.65
2019-04-16T20:59:19.374Z,51.43
2019-04-16T21:01:47.996Z,51.43
2019-04-16T21:04:16.611Z,50.89
2019-04-16T21:06:45.627Z,51.14
2019-04-16T21:09:14.262Z,52.71
2019-04-16T21:11:43.238Z,52.34
2019-04-16T21:14:12.216Z,53.07
2019-04-16T21:16:40.832Z,53.07
2019-04-16T21:19:22.213Z,52.46
2019-04-16T21:21:40.227Z,52.44
2019-04-16T21:24:09.205Z,52.95
2019-04-16T21:26:38.263Z,55.01
2019-04-16T21:29:14.496Z,52.71
2019-04-16T21:31:59.960Z,54.81
2019-04-16T21:34:35.944Z,53.35
2019-04-16T21:40:01.583Z,53.57
2019-04-16T21:42:34.589Z,53.57
2019-04-16T21:45:00.596Z,53.18
2019-04-16T21:47:29.206Z,53.18
2019-04-16T21:49:58.124Z,53.35
2019-04-16T21:52:26.732Z,53.35
2019-04-16T21:54:55.869Z,53.06
2019-04-16T21:57:24.902Z,53.52
2019-04-16T22:18:49.400Z,53.77
2019-04-16T22:30:20.151Z,56.91
2019-04-16T22:32:58.249Z,55.64
2019-04-16T22:35:32.121Z,55.55
2019-04-16T22:38:47.344Z,56.23
2019-04-16T22:41:18.427Z,57.99
2019-04-16T22:43:52.984Z,56.34
2019-04-16T22:46:26.113Z,56.84
2019-04-16T22:48:55.754Z,57.60
2019-04-16T22:51:25.079Z,58.22
2019-04-16T22:53:54.237Z,57.35
2019-04-16T22:56:28.208Z,57.03
2019-04-16T22:58:55.036Z,58.79
2019-04-16T23:01:25.579Z,58.65
2019-04-16T23:03:54.486Z,57.58
2019-04-16T23:06:23.198Z,59.71
2019-04-16T23:08:51.925Z,59.21
2019-04-16T23:11:23.754Z,57.73
2019-04-16T23:13:53.236Z,57.97
2019-04-16T23:16:21.809Z,58.38
2019-04-16T23:18:52.024Z,57.26
2019-04-16T23:21:20.602Z,58.47
2019-04-16T23:23:52.264Z,57.73
2019-04-16T23:26:21.950Z,57.01
2019-04-16T23:28:50.527Z,57.03
2019-04-16T23:31:22.563Z,57.74
2019-04-16T23:33:51.764Z,58.34
2019-04-16T23:36:22.010Z,59.01
2019-04-16T23:38:50.625Z,58.68
2019-04-16T23:41:19.250Z,59.10
2019-04-16T23:43:53.511Z,58.39
2019-04-16T23:46:24.247Z,59.08
2019-04-16T23:48:57.275Z,59.52
2019-04-16T23:51:30.201Z,58.00
2019-04-16T23:54:00.444Z,60.60
2019-04-16T23:57:06.711Z,60.06
